Time;durP1;ratioP1;P1;durP2;ratioP2;P2;SDS_P1;SDS_P2;PMS_P1;PMS_P2;Temp;Humidity;BMP_temperature;BMP_pressure;BME280_temperature;BME280_humidity;BME280_pressure;Samples;Min_cycle;Max_cycle;Signal;HPM_P1;HPM_P2
2023/06/13 00:04:51;;;;;;;0.05;0.05;;;;;;;-145.06;89.09;90831.78;10316911;28;20022;-75
2023/06/13 00:09:51;;;;;;;0.03;0.03;;;;;;;-145.06;89.76;90827.69;10310599;28;20018;-75
2023/06/13 00:14:53;;;;;;;0.10;0.10;;;;;;;-145.06;90.04;90827.69;10299775;28;20039;-74
2023/06/13 00:19:56;;;;;;;0.10;0.10;;;;;;;-145.06;89.47;90762.28;10304906;28;20038;-75
2023/06/13 00:24:56;;;;;;;0.10;0.10;;;;;;;-145.06;88.78;90803.16;10296960;28;20030;-75
2023/06/13 00:29:57;;;;;;;0.10;0.10;;;;;;;-145.06;89.60;90827.69;10318193;28;20023;-75
2023/06/13 00:34:57;;;;;;;0.10;0.10;;;;;;;-145.06;90.22;90815.44;10303918;28;20023;-75
2023/06/13 00:39:58;;;;;;;0.03;0.03;;;;;;;-145.06;90.02;90852.22;10297467;28;20046;-75
2023/06/13 00:45:18;;;;;;;0.00;0.00;;;;;;;-145.06;90.35;90831.78;10315977;28;20510;-75
2023/06/13 00:50:19;;;;;;;0.00;0.00;;;;;;;-145.06;90.66;90833.84;10309502;28;20049;-75
2023/06/13 00:55:21;;;;;;;0.10;0.10;;;;;;;-145.06;90.28;90897.19;10320498;28;20062;-75
2023/06/13 01:00:26;;;;;;;0.10;0.10;;;;;;;-145.06;88.87;90882.88;10306415;28;20419;-76
2023/06/13 01:05:28;;;;;;;0.10;0.10;;;;;;;-145.06;88.66;90858.34;10295166;28;20034;-75
2023/06/13 01:10:29;;;;;;;0.10;0.10;;;;;;;-145.06;87.56;90870.63;10305875;28;20077;-75
2023/06/13 01:15:34;;;;;;;0.10;0.10;;;;;;;-145.06;87.47;90866.53;10294426;28;20057;-75
2023/06/13 01:20:36;;;;;;;0.10;0.10;;;;;;;-145.06;91.54;90909.47;10306868;28;20030;-75
2023/06/13 01:25:52;;;;;;;0.10;0.10;;;;;;;-145.06;91.68;90958.50;10310462;28;20025;-75
2023/06/13 01:30:54;;;;;;;0.10;0.10;;;;;;;-145.06;91.85;90915.59;10289890;28;20027;-75
2023/06/13 01:35:55;;;;;;;0.00;0.00;;;;;;;-145.06;88.53;90934.00;10281185;28;20066;-75
2023/06/13 01:40:57;;;;;;;0.10;0.10;;;;;;;-145.06;86.95;90954.44;10310292;28;20034;-75
2023/06/13 01:46:05;;;;;;;0.03;0.03;;;;;;;-145.06;85.96;90905.38;10305474;28;20059;-74
2023/06/13 01:51:27;;;;;;;0.10;0.10;;;;;;;-145.06;87.40;90938.06;10313933;28;20431;-75
2023/06/13 01:56:31;;;;;;;0.00;0.00;;;;;;;-145.06;87.27;90978.97;10301270;28;20881;-75
2023/06/13 02:01:33;;;;;;;0.00;0.00;;;;;;;-145.06;88.75;90981.00;10315342;28;20019;-75
2023/06/13 02:06:33;;;;;;;0.10;0.10;;;;;;;-145.06;90.53;91023.91;10307695;28;20069;-75
2023/06/13 02:11:33;;;;;;;0.00;0.00;;;;;;;-145.06;92.59;90993.25;10298369;28;20076;-74
2023/06/13 02:16:34;;;;;;;0.10;0.10;;;;;;;-145.06;92.47;91030.06;10291242;28;20049;-75
2023/06/13 02:21:35;;;;;;;0.00;0.00;;;;;;;-145.06;93.13;91003.47;10284178;28;20447;-75
2023/06/13 02:26:39;;;;;;;0.00;0.00;;;;;;;-145.06;94.20;91013.69;10285885;28;20023;-75
2023/06/13 02:31:41;;;;;;;0.00;0.00;;;;;;;-145.06;95.30;91007.56;10317251;28;20433;-74
2023/06/13 02:36:41;;;;;;;0.10;0.10;;;;;;;-145.06;95.74;90970.78;10305824;28;20030;-75
2023/06/13 02:41:41;;;;;;;0.00;0.00;;;;;;;-145.06;95.51;90983.03;10311556;28;20388;-74
2023/06/13 02:46:42;;;;;;;0.10;0.10;;;;;;;-145.06;95.62;90995.31;10309701;28;20018;-74
2023/06/13 02:51:42;;;;;;;0.00;0.00;;;;;;;-145.06;95.62;90983.03;10317069;28;20055;-73
2023/06/13 02:56:42;;;;;;;0.00;0.00;;;;;;;-145.06;96.42;90991.22;10313686;28;20105;-74
2023/06/13 03:01:43;;;;;;;0.00;0.00;;;;;;;-145.06;97.85;91019.84;10313683;28;20323;-73
2023/06/13 03:06:44;;;;;;;0.00;0.00;;;;;;;-145.06;99.56;90956.47;10323788;28;20030;-75
2023/06/13 03:11:45;;;;;;;0.10;0.10;;;;;;;-145.06;100.00;90545.66;10315976;28;20026;-75
2023/06/13 03:16:45;;;;;;;0.00;0.00;;;;;;;-145.06;98.25;90455.72;10306141;28;20403;-75
2023/06/13 03:21:45;;;;;;;0.00;0.00;;;;;;;-145.06;94.95;90292.22;10301714;28;20117;-75
2023/06/13 03:26:46;;;;;;;0.10;0.10;;;;;;;-145.06;91.72;90167.56;10318215;28;20149;-75
2023/06/13 03:31:47;;;;;;;0.08;0.08;;;;;;;-145.06;89.55;90118.50;10323729;28;20036;-76
2023/06/13 03:36:47;;;;;;;0.00;0.00;;;;;;;-145.06;87.32;89993.84;10312380;28;20556;-76
2023/06/13 03:41:47;;;;;;;0.10;0.10;;;;;;;-145.06;85.29;89928.47;10315346;28;20057;-76
2023/06/13 03:46:48;;;;;;;0.10;0.10;;;;;;;-145.06;84.73;89818.13;10316968;28;20228;-76
2023/06/13 03:51:48;;;;;;;0.10;0.10;;;;;;;-145.06;82.93;89730.25;10319391;28;20033;-76
2023/06/13 03:56:49;;;;;;;0.10;0.10;;;;;;;-145.06;80.48;89638.28;10308150;28;20110;-76
2023/06/13 04:01:49;;;;;;;0.10;0.10;;;;;;;-145.06;77.56;89540.22;10321317;28;20030;-76
2023/06/13 04:06:50;;;;;;;0.10;0.10;;;;;;;-145.06;74.06;89386.97;10292968;28;20018;-76
2023/06/13 04:11:50;;;;;;;0.10;0.10;;;;;;;-145.06;71.10;89290.94;10323027;28;20113;-76
2023/06/13 04:16:52;;;;;;;0.10;0.10;;;;;;;-145.06;68.84;89223.50;10320160;28;20018;-75
2023/06/13 04:21:52;;;;;;;0.10;0.10;;;;;;;-145.06;67.24;89172.44;10328574;28;20014;-76
2023/06/13 04:26:53;;;;;;;0.10;0.10;;;;;;;-145.06;63.19;89055.97;10289495;28;20092;-76
2023/06/13 04:31:53;;;;;;;0.10;0.10;;;;;;;-145.06;61.29;88964.03;10291957;28;20457;-75
2023/06/13 04:36:56;;;;;;;0.10;0.10;;;;;;;-145.06;60.37;88900.72;10324812;28;20025;-76
2023/06/13 04:41:56;;;;;;;0.10;0.10;;;;;;;-145.06;58.70;88843.50;10296770;28;20030;-76
2023/06/13 04:47:01;;;;;;;0.03;0.03;;;;;;;-145.06;55.59;88722.97;10301230;28;20026;-76
2023/06/13 04:52:01;;;;;;;0.10;0.10;;;;;;;-145.06;54.43;88622.88;10319050;28;20062;-76
2023/06/13 04:57:01;;;;;;;0.00;0.00;;;;;;;-145.06;53.34;88575.88;10306391;28;20523;-76
2023/06/13 05:02:02;;;;;;;0.00;0.00;;;;;;;-145.06;52.42;88588.16;10314943;28;20033;-76
2023/06/13 05:07:05;;;;;;;0.00;0.00;;;;;;;-145.06;51.92;88502.34;10306529;28;20157;-76
2023/06/13 05:12:06;;;;;;;0.00;0.00;;;;;;;-145.06;50.91;88443.13;10320925;28;20049;-76
2023/06/13 05:17:07;;;;;;;0.00;0.00;;;;;;;-145.06;49.70;88406.34;10310887;28;20050;-75
2023/06/13 05:22:07;;;;;;;0.10;0.10;;;;;;;-145.06;48.28;88347.09;10301930;28;20547;-76
2023/06/13 05:27:08;;;;;;;0.00;0.00;;;;;;;-145.06;49.08;88271.53;10306690;28;20026;-74
2023/06/13 05:32:08;;;;;;;0.10;0.10;;;;;;;-145.06;48.85;88320.56;10307134;28;20019;-75
2023/06/13 05:37:10;;;;;;;0.00;0.00;;;;;;;-145.06;48.72;88320.56;10296964;28;20022;-74
2023/06/13 05:42:11;;;;;;;0.00;0.00;;;;;;;-145.06;49.61;88279.69;10324763;28;20018;-74
2023/06/13 05:47:12;;;;;;;0.00;0.00;;;;;;;-145.06;49.29;88422.69;10316813;28;20030;-74
2023/06/13 05:52:12;;;;;;;0.00;0.00;;;;;;;-145.06;49.83;88332.81;10322530;28;20049;-75
2023/06/13 05:57:13;;;;;;;0.00;0.00;;;;;;;-145.06;48.74;88279.69;10302572;28;20033;-76
2023/06/13 06:02:13;;;;;;;0.10;0.10;;;;;;;-145.06;49.00;88257.22;10303601;28;20022;-75
2023/06/13 06:07:13;;;;;;;0.00;0.00;;;;;;;-145.06;47.83;88228.63;10288990;28;20058;-75
2023/06/13 06:12:14;;;;;;;0.10;0.10;;;;;;;-145.06;46.93;88181.66;10298102;28;20081;-75
2023/06/13 06:17:14;;;;;;;0.00;0.00;;;;;;;-145.06;46.05;88126.50;10302289;28;20027;-75
2023/06/13 06:22:14;;;;;;;0.10;0.10;;;;;;;-145.06;44.09;88044.78;10312320;28;20033;-76
2023/06/13 06:27:15;;;;;;;0.10;0.10;;;;;;;-145.06;42.93;87930.41;10330807;28;20018;-76
2023/06/13 06:32:15;;;;;;;0.00;0.00;;;;;;;-145.06;42.49;87828.28;10295493;28;20314;-76
2023/06/13 06:37:15;;;;;;;0.10;0.10;;;;;;;-145.06;41.81;87858.94;10311960;28;20472;-76
2023/06/13 06:42:16;;;;;;;0.10;0.10;;;;;;;-145.06;40.67;87775.19;10294493;28;20027;-76
2023/06/13 06:47:16;;;;;;;0.10;0.10;;;;;;;-145.06;39.03;87754.75;10291160;28;20631;-76
2023/06/13 06:52:16;;;;;;;0.07;0.07;;;;;;;-145.06;38.63;87697.56;10301581;28;20041;-76
2023/06/13 06:57:17;;;;;;;0.10;0.10;;;;;;;-145.06;37.98;87750.69;10321026;28;20034;-76
2023/06/13 07:02:17;;;;;;;0.00;0.00;;;;;;;-145.06;36.97;87730.25;10303138;28;20109;-75
2023/06/13 07:07:17;;;;;;;0.00;0.00;;;;;;;-145.06;36.77;87664.91;10323838;28;20026;-76
2023/06/13 07:12:18;;;;;;;0.10;0.10;;;;;;;-145.06;35.15;87677.16;10305897;28;20375;-75
2023/06/13 07:17:18;;;;;;;0.00;0.00;;;;;;;-145.06;35.10;87744.56;10322567;28;20022;-75
2023/06/13 07:22:18;;;;;;;0.00;0.00;;;;;;;-145.06;34.38;87805.81;10316069;28;20483;-75
2023/06/13 07:27:18;;;;;;;0.10;0.10;;;;;;;-145.06;35.68;87873.22;10322984;28;20065;-75
2023/06/13 07:32:19;;;;;;;0.10;0.10;;;;;;;-145.06;34.70;87877.31;10325235;28;20018;-75
2023/06/13 07:37:19;;;;;;;0.10;0.10;;;;;;;-145.06;34.37;87907.94;10325261;28;20237;-75
2023/06/13 07:42:20;;;;;;;0.10;0.10;;;;;;;-145.06;36.20;87885.47;10326812;28;20092;-75
2023/06/13 07:47:20;;;;;;;0.10;0.10;;;;;;;-145.06;34.82;87897.72;10330415;28;20014;-75
2023/06/13 07:52:20;;;;;;;0.10;0.10;;;;;;;-145.06;34.31;87977.38;10298850;28;20033;-76
2023/06/13 07:57:21;;;;;;;0.00;0.00;;;;;;;-145.06;35.85;88073.38;10320395;28;20022;-75
2023/06/13 08:02:23;;;;;;;0.00;0.00;;;;;;;-145.06;34.86;88010.06;10312353;28;20085;-75
2023/06/13 08:07:24;;;;;;;0.00;0.00;;;;;;;-145.06;36.29;87952.88;10307377;28;20022;-75
2023/06/13 08:12:25;;;;;;;0.00;0.00;;;;;;;-145.06;35.50;87999.84;10319871;28;20018;-75
2023/06/13 08:17:26;;;;;;;0.00;0.00;;;;;;;-145.06;36.41;87993.72;10325323;28;20453;-75
2023/06/13 08:22:27;;;;;;;0.00;0.00;;;;;;;-145.06;37.17;87991.69;10310244;28;20026;-75
2023/06/13 08:27:27;;;;;;;0.10;0.10;;;;;;;-145.06;35.67;88028.47;10292147;28;20033;-74
2023/06/13 08:32:28;;;;;;;0.00;0.00;;;;;;;-145.06;36.75;88065.22;10320822;28;20030;-75
2023/06/13 08:37:28;;;;;;;0.00;0.00;;;;;;;-145.06;36.08;88032.53;10305206;28;20109;-75
2023/06/13 08:42:30;;;;;;;0.10;0.10;;;;;;;-145.06;37.51;88085.66;10294351;28;20301;-76
2023/06/13 08:47:30;;;;;;;0.00;0.00;;;;;;;-145.06;37.29;88093.81;10295223;28;20269;-75
2023/06/13 08:52:38;;;;;;;0.00;0.00;;;;;;;-145.06;36.13;88138.75;10312745;28;20506;-74
2023/06/13 08:57:41;;;;;;;0.00;0.00;;;;;;;-145.06;37.19;88073.38;10324887;28;20280;-75
2023/06/13 09:02:45;;;;;;;0.00;0.00;;;;;;;-145.06;38.12;88126.50;10311624;28;20027;-75
2023/06/13 09:07:46;;;;;;;0.00;0.00;;;;;;;-145.06;38.82;88140.78;10314446;28;20030;-75
2023/06/13 09:12:49;;;;;;;0.00;0.00;;;;;;;-145.06;36.55;88130.59;10308083;28;20093;-74
2023/06/13 09:17:53;;;;;;;0.00;0.00;;;;;;;-145.06;36.71;88130.59;10309516;28;20030;-74
2023/06/13 09:22:55;;;;;;;0.00;0.00;;;;;;;-145.06;38.23;88114.25;10305663;28;20026;-75
2023/06/13 09:27:55;;;;;;;0.00;0.00;;;;;;;-145.06;37.13;88095.84;10308954;28;20034;-75
2023/06/13 09:32:56;;;;;;;0.00;0.00;;;;;;;-145.06;36.30;88097.91;10326346;28;20093;-75
2023/06/13 09:37:56;;;;;;;0.00;0.00;;;;;;;-145.06;36.37;88097.91;10305342;28;20033;-75
2023/06/13 09:42:58;;;;;;;0.00;0.00;;;;;;;-145.06;37.55;88089.72;10310711;28;20023;-75
2023/06/13 09:47:58;;;;;;;0.00;0.00;;;;;;;-145.06;38.66;88085.66;10316295;28;20019;-75
2023/06/13 09:52:58;;;;;;;0.10;0.10;;;;;;;-145.06;37.98;88075.44;10317342;28;20027;-75
2023/06/13 09:57:59;;;;;;;0.00;0.00;;;;;;;-145.06;35.90;88008.03;10320352;28;20026;-74
2023/06/13 10:02:59;;;;;;;0.00;0.00;;;;;;;-145.06;36.55;88081.56;10319060;28;20023;-75
2023/06/13 10:07:59;;;;;;;0.00;0.00;;;;;;;-145.06;36.23;87965.13;10299187;28;20027;-75
2023/06/13 10:13:03;;;;;;;0.00;0.00;;;;;;;-145.06;37.79;88003.94;10303181;28;20021;-75
2023/06/13 10:18:10;;;;;;;0.00;0.00;;;;;;;-145.06;35.91;87997.81;10310925;28;20365;-74
2023/06/13 10:23:15;;;;;;;0.00;0.00;;;;;;;-145.06;37.45;87999.84;10333498;28;20018;-75
2023/06/13 10:28:28;;;;;;;0.00;0.00;;;;;;;-145.06;34.21;87907.94;10313450;28;20133;-74
2023/06/13 10:33:36;;;;;;;0.00;0.00;;;;;;;-145.06;33.80;87995.78;10329869;28;20022;-74
2023/06/13 10:39:12;;;;;;;0.10;0.10;;;;;;;-145.06;32.50;88106.06;10328395;28;20496;-74
2023/06/13 10:44:21;;;;;;;0.00;0.00;;;;;;;-145.06;35.06;88195.94;10293192;28;20026;-75
2023/06/13 10:49:21;;;;;;;0.00;0.00;;;;;;;-145.06;33.33;88175.53;10311100;28;20077;-74
2023/06/13 10:54:25;;;;;;;0.00;0.00;;;;;;;-145.06;36.54;88259.28;10315064;28;20065;-74
2023/06/13 10:59:34;;;;;;;0.00;0.00;;;;;;;-145.06;32.23;88189.81;10313723;28;20487;-74
2023/06/13 11:04:34;;;;;;;0.00;0.00;;;;;;;-145.06;31.42;88193.91;10322680;28;20085;-73
2023/06/13 11:09:35;;;;;;;0.00;0.00;;;;;;;-145.06;32.09;88257.22;10297897;28;20082;-74
2023/06/13 11:14:38;;;;;;;0.00;0.00;;;;;;;-145.06;33.28;88259.28;10326955;28;20031;-73
2023/06/13 11:19:39;;;;;;;0.03;0.03;;;;;;;-145.06;33.27;88265.41;10319716;28;20155;-74
2023/06/13 11:24:40;;;;;;;0.00;0.00;;;;;;;-145.06;32.88;88240.88;10327450;28;20105;-74
2023/06/13 11:29:41;;;;;;;0.00;0.00;;;;;;;-145.06;32.55;88255.19;10291927;28;20118;-74
2023/06/13 11:34:47;;;;;;;0.00;0.00;;;;;;;-145.06;32.51;88273.56;10318479;28;20019;-74
2023/06/13 11:39:54;;;;;;;0.05;0.05;;;;;;;-145.06;32.68;88291.94;10325996;28;20038;-74
2023/06/13 11:44:54;;;;;;;0.03;0.03;;;;;;;-145.06;33.49;88253.13;10311516;28;20034;-74
2023/06/13 11:49:56;;;;;;;0.00;0.00;;;;;;;-145.06;34.61;88322.59;10310835;28;20022;-74
2023/06/13 11:54:58;;;;;;;0.10;0.10;;;;;;;-145.06;33.72;88310.34;10323443;28;20770;-75
2023/06/13 11:59:58;;;;;;;0.00;0.00;;;;;;;-145.06;34.10;88294.00;10304684;28;20018;-75
2023/06/13 12:04:58;;;;;;;0.00;0.00;;;;;;;-145.06;33.85;88353.22;10312111;28;20027;-74
2023/06/13 12:09:59;;;;;;;0.00;0.00;;;;;;;-145.06;35.31;88400.22;10331190;28;20376;-74
2023/06/13 12:15:02;;;;;;;0.00;0.00;;;;;;;-145.06;35.50;88353.22;10309125;28;20029;-74
2023/06/13 12:20:09;;;;;;;0.00;0.00;;;;;;;-145.06;33.56;88279.69;10301538;28;20103;-74
2023/06/13 12:25:09;;;;;;;0.00;0.00;;;;;;;-145.06;35.58;88355.28;10316107;28;20379;-74
2023/06/13 12:30:13;;;;;;;0.00;0.00;;;;;;;-145.06;36.85;88363.44;10328929;28;20074;-74
2023/06/13 12:35:17;;;;;;;0.10;0.10;;;;;;;-145.06;36.57;88332.81;10316696;28;20030;-74
2023/06/13 12:40:18;;;;;;;0.00;0.00;;;;;;;-145.06;36.05;88294.00;10322254;28;20037;-74
2023/06/13 12:45:19;;;;;;;0.00;0.00;;;;;;;-145.06;36.21;88343.03;10314094;28;20464;-73
2023/06/13 12:50:22;;;;;;;0.00;0.00;;;;;;;-145.06;35.60;88340.97;10317954;28;20566;-73
2023/06/13 12:55:24;;;;;;;0.00;0.00;;;;;;;-145.06;34.92;88304.22;10318389;28;20503;-73
2023/06/13 13:00:24;;;;;;;0.00;0.00;;;;;;;-145.06;33.80;88486.00;10321719;28;20538;-73
2023/06/13 13:05:27;;;;;;;0.10;0.10;;;;;;;-145.06;34.01;88259.28;10317470;28;20022;-73
2023/06/13 13:10:30;;;;;;;0.00;0.00;;;;;;;-145.06;34.01;88314.41;10307817;28;20038;-73
2023/06/13 13:15:31;;;;;;;0.10;0.10;;;;;;;-145.06;34.70;88277.66;10310283;28;20026;-74
2023/06/13 13:20:31;;;;;;;0.00;0.00;;;;;;;-145.06;33.51;88298.06;10315949;28;20112;-74
2023/06/13 13:25:32;;;;;;;0.00;0.00;;;;;;;-145.06;34.12;88296.03;10303134;28;20348;-74
2023/06/13 13:30:33;;;;;;;0.00;0.00;;;;;;;-145.06;33.04;88308.28;10324786;28;20085;-74
2023/06/13 13:35:34;;;;;;;0.00;0.00;;;;;;;-145.06;32.69;88326.69;10319045;28;20026;-74
2023/06/13 13:40:34;;;;;;;0.10;0.10;;;;;;;-145.06;32.76;88306.25;10315157;28;20515;-74
2023/06/13 13:45:34;;;;;;;0.00;0.00;;;;;;;-145.06;33.11;88369.56;10311402;28;20025;-74
2023/06/13 13:50:35;;;;;;;0.00;0.00;;;;;;;-145.06;32.56;88343.03;10315822;28;20031;-74
2023/06/13 13:55:36;;;;;;;0.00;0.00;;;;;;;-145.06;31.54;88326.69;10321401;28;20027;-74
2023/06/13 14:00:36;;;;;;;0.03;0.03;;;;;;;-145.06;32.73;88340.97;10298161;28;20022;-74
2023/06/13 14:05:37;;;;;;;0.00;0.00;;;;;;;-145.06;33.02;88304.22;10293068;28;20011;-74
2023/06/13 14:10:37;;;;;;;0.00;0.00;;;;;;;-145.06;33.30;88328.72;10320482;28;20101;-74
2023/06/13 14:15:37;;;;;;;0.00;0.00;;;;;;;-145.06;32.84;88379.78;10319014;28;20105;-74
2023/06/13 14:20:38;;;;;;;0.00;0.00;;;;;;;-145.06;32.72;88361.41;10294893;28;20501;-74
2023/06/13 14:25:38;;;;;;;0.00;0.00;;;;;;;-145.06;33.16;88338.94;10301535;28;20071;-74
2023/06/13 14:30:39;;;;;;;0.00;0.00;;;;;;;-145.06;33.24;88387.97;10319615;28;20031;-74
2023/06/13 14:35:39;;;;;;;0.10;0.10;;;;;;;-145.06;32.64;88375.69;10318630;28;20475;-74
2023/06/13 14:40:40;;;;;;;0.00;0.00;;;;;;;-145.06;33.67;88428.81;10308485;28;20026;-74
2023/06/13 14:45:41;;;;;;;0.00;0.00;;;;;;;-145.06;33.78;88436.97;10320865;28;20018;-74
2023/06/13 14:50:41;;;;;;;0.00;0.00;;;;;;;-145.06;33.35;88394.09;10310081;28;20033;-75
2023/06/13 14:55:42;;;;;;;0.00;0.00;;;;;;;-145.06;33.36;88439.03;10331484;28;20292;-76
2023/06/13 15:00:42;;;;;;;0.00;0.00;;;;;;;-145.06;32.82;88455.38;10316622;28;20026;-76
2023/06/13 15:05:43;;;;;;;0.00;0.00;;;;;;;-145.06;32.46;88420.63;10315111;28;20443;-75
2023/06/13 15:10:43;;;;;;;0.00;0.00;;;;;;;-145.06;31.85;88436.97;10308544;28;20022;-76
2023/06/13 15:15:52;;;;;;;0.00;0.00;;;;;;;-145.06;32.86;88439.03;10329503;28;20030;-76
2023/06/13 15:20:53;;;;;;;0.00;0.00;;;;;;;-145.06;32.12;88455.38;10320311;28;20030;-76
2023/06/13 15:25:53;;;;;;;0.00;0.00;;;;;;;-145.06;31.42;88490.09;10310299;28;20036;-76
2023/06/13 15:30:54;;;;;;;0.00;0.00;;;;;;;-145.06;32.10;88496.22;10311085;28;20054;-76
2023/06/13 15:35:54;;;;;;;0.00;0.00;;;;;;;-145.06;32.16;88549.34;10298953;28;20039;-75
2023/06/13 15:40:56;;;;;;;0.00;0.00;;;;;;;-145.06;32.05;88575.88;10286104;28;20475;-77
2023/06/13 15:45:56;;;;;;;0.10;0.10;;;;;;;-145.06;30.78;88571.81;10320406;28;20261;-76
2023/06/13 15:50:57;;;;;;;0.00;0.00;;;;;;;-145.06;32.40;88569.75;10339044;28;20042;-76
2023/06/13 15:56:02;;;;;;;0.00;0.00;;;;;;;-145.06;31.50;88575.88;10338640;28;20082;-77
2023/06/13 16:01:05;;;;;;;0.00;0.00;;;;;;;-145.06;31.84;88606.53;10322765;28;20225;-78
2023/06/13 16:06:06;;;;;;;0.00;0.00;;;;;;;-145.06;32.38;88673.94;10339632;28;20030;-78
2023/06/13 16:11:06;;;;;;;0.10;0.10;;;;;;;-145.06;32.44;88784.25;10322662;28;20404;-77
2023/06/13 16:16:07;;;;;;;0.00;0.00;;;;;;;-145.06;32.97;88772.00;10338982;28;20049;-77
2023/06/13 16:21:07;;;;;;;0.10;0.10;;;;;;;-145.06;32.69;88759.75;10339549;28;20029;-77
2023/06/13 16:26:07;;;;;;;0.10;0.10;;;;;;;-145.06;33.59;88837.38;10339097;28;20049;-77
2023/06/13 16:31:07;;;;;;;0.10;0.10;;;;;;;-145.06;33.14;88855.75;10340257;28;20121;-78
2023/06/13 16:36:08;;;;;;;0.10;0.10;;;;;;;-145.06;32.49;88902.75;10339094;28;20026;-77
2023/06/13 16:41:09;;;;;;;0.00;0.00;;;;;;;-145.06;33.38;88953.84;10338143;28;20378;-77
2023/06/13 16:46:09;;;;;;;0.00;0.00;;;;;;;-145.06;32.46;88962.00;10321063;28;20054;-77
2023/06/13 16:51:09;;;;;;;0.00;0.00;;;;;;;-145.06;33.43;89045.75;10337618;28;20549;-78
2023/06/13 16:56:10;;;;;;;0.10;0.10;;;;;;;-145.06;32.45;89015.13;10337906;28;20102;-77
2023/06/13 17:01:10;;;;;;;0.07;0.07;;;;;;;-145.06;32.66;89066.19;10337556;28;20104;-77
2023/06/13 17:06:10;;;;;;;0.00;0.00;;;;;;;-145.06;32.59;89080.50;10335713;28;20045;-77
2023/06/13 17:11:11;;;;;;;0.10;0.10;;;;;;;-145.06;33.79;89164.25;10318447;28;20023;-77
2023/06/13 17:16:11;;;;;;;0.00;0.00;;;;;;;-145.06;34.02;89182.66;10336274;28;20033;-78
2023/06/13 17:21:11;;;;;;;0.00;0.00;;;;;;;-145.06;34.24;89264.38;10336192;28;20026;-77
2023/06/13 17:26:12;;;;;;;0.00;0.00;;;;;;;-145.06;35.08;89276.63;10318950;28;20018;-77
2023/06/13 17:31:12;;;;;;;0.00;0.00;;;;;;;-145.06;34.15;89313.41;10335590;28;20085;-78
2023/06/13 17:36:13;;;;;;;0.10;0.10;;;;;;;-145.06;35.21;89378.78;10334795;28;20041;-77
2023/06/13 17:41:13;;;;;;;0.10;0.10;;;;;;;-145.06;36.49;89405.34;10335560;28;20182;-77
2023/06/13 17:46:18;;;;;;;0.00;0.00;;;;;;;-145.06;36.61;89440.09;10336165;28;20057;-78
2023/06/13 17:51:18;;;;;;;0.10;0.10;;;;;;;-145.06;36.63;89458.47;10335305;28;20035;-78
2023/06/13 17:56:19;;;;;;;0.10;0.10;;;;;;;-145.06;37.11;89438.06;10336756;28;20411;-78
2023/06/13 18:01:19;;;;;;;0.10;0.10;;;;;;;-145.06;37.53;89501.41;10335081;28;20426;-77
2023/06/13 18:06:22;;;;;;;0.10;0.10;;;;;;;-145.06;38.06;89517.75;10334910;28;20022;-75
2023/06/13 18:11:22;;;;;;;0.10;0.10;;;;;;;-145.06;38.40;89570.88;10335820;28;20462;-77
2023/06/13 18:16:23;;;;;;;0.00;0.00;;;;;;;-145.06;39.37;89552.47;10339420;28;20066;-78
2023/06/13 18:21:23;;;;;;;0.00;0.00;;;;;;;-145.06;40.00;89656.69;10343490;28;20365;-76
2023/06/13 18:26:23;;;;;;;0.00;0.00;;;;;;;-145.06;41.00;89675.06;10343984;28;20105;-78
2023/06/13 18:31:24;;;;;;;0.10;0.10;;;;;;;-145.06;42.18;89705.72;10341850;28;20455;-77
2023/06/13 18:36:24;;;;;;;0.10;0.10;;;;;;;-145.06;43.15;89715.94;10341987;28;20030;-77
2023/06/13 18:41:24;;;;;;;0.10;0.10;;;;;;;-145.06;44.06;89769.06;10325799;28;20022;-78
2023/06/13 18:46:25;;;;;;;0.10;0.10;;;;;;;-145.06;45.30;89801.75;10342040;28;20119;-77
2023/06/13 18:51:26;;;;;;;0.03;0.03;;;;;;;-145.06;46.32;89842.63;10341419;28;20152;-77
2023/06/13 18:56:27;;;;;;;0.08;0.08;;;;;;;-145.06;46.70;89848.75;10324251;28;20069;-77
2023/06/13 19:01:32;;;;;;;0.10;0.10;;;;;;;-145.06;47.39;89858.97;10342337;28;20491;-78
2023/06/13 19:06:32;;;;;;;0.10;0.10;;;;;;;-145.06;49.50;89918.25;10339636;28;20026;-79
2023/06/13 19:11:33;;;;;;;0.10;0.10;;;;;;;-145.06;50.49;89950.94;10348277;28;20026;-78
2023/06/13 19:16:33;;;;;;;0.10;0.10;;;;;;;-145.06;50.57;89959.13;10327714;28;20037;-78
2023/06/13 19:21:34;;;;;;;0.05;0.05;;;;;;;-145.06;51.40;89959.13;10345429;28;20026;-78
2023/06/13 19:26:35;;;;;;;0.10;0.10;;;;;;;-145.06;53.10;90034.72;10318784;28;20019;-78
2023/06/13 19:31:35;;;;;;;0.10;0.10;;;;;;;-145.06;54.27;90042.91;10306063;28;20269;-77
2023/06/13 19:36:37;;;;;;;0.10;0.10;;;;;;;-145.06;55.21;90073.56;10304567;28;20019;-77
2023/06/13 19:41:37;;;;;;;0.10;0.10;;;;;;;-145.06;56.85;90159.38;10322712;28;20030;-78
2023/06/13 19:46:38;;;;;;;0.10;0.10;;;;;;;-145.06;59.13;90181.88;10344103;28;20018;-78
2023/06/13 19:51:38;;;;;;;0.10;0.10;;;;;;;-145.06;60.28;90192.06;10309274;28;20050;-77
2023/06/13 19:56:39;;;;;;;0.10;0.10;;;;;;;-145.06;61.68;90247.25;10289715;28;20499;-78
2023/06/13 20:01:39;;;;;;;0.10;0.10;;;;;;;-145.06;63.09;90247.25;10367057;28;20026;-78
2023/06/13 20:06:40;;;;;;;0.10;0.10;;;;;;;-145.06;65.50;90339.22;10349664;28;20022;-78
2023/06/13 20:11:40;;;;;;;0.10;0.10;;;;;;;-145.06;68.63;90326.97;10332007;28;20026;-78
2023/06/13 20:16:41;;;;;;;0.10;0.10;;;;;;;-145.06;71.43;90394.41;10345359;28;20026;-78
2023/06/13 20:21:41;;;;;;;0.10;0.10;;;;;;;-145.06;73.73;90423.00;10295101;28;20281;-78
2023/06/13 20:26:41;;;;;;;0.10;0.10;;;;;;;-145.06;75.68;90467.97;10297724;28;20018;-78
2023/06/13 20:31:41;;;;;;;0.10;0.10;;;;;;;-145.06;78.10;90486.38;10364601;28;20045;-78
2023/06/13 20:36:42;;;;;;;0.10;0.10;;;;;;;-145.06;79.42;90500.69;10318453;28;20045;-78
2023/06/13 20:41:42;;;;;;;0.10;0.10;;;;;;;-145.06;82.01;90543.59;10325477;28;20266;-78
2023/06/13 20:46:45;;;;;;;0.10;0.10;;;;;;;-145.06;87.39;90586.53;10356880;28;20084;-78
2023/06/13 20:51:45;;;;;;;0.10;0.10;;;;;;;-145.06;89.41;90557.91;10340257;28;20041;-78
2023/06/13 20:56:46;;;;;;;0.10;0.10;;;;;;;-145.06;90.28;90594.69;10346579;28;20449;-78
2023/06/13 21:01:53;;;;;;;0.10;0.10;;;;;;;-145.06;89.94;90586.53;10326841;28;20027;-78
2023/06/13 21:06:53;;;;;;;0.10;0.10;;;;;;;-145.06;88.83;90539.50;10317519;28;20033;-78
2023/06/13 21:11:53;;;;;;;0.10;0.10;;;;;;;-145.06;88.26;90588.56;10315397;28;20083;-78
2023/06/13 21:16:54;;;;;;;0.10;0.10;;;;;;;-145.06;88.93;90606.97;10314665;28;20060;-78
2023/06/13 21:21:55;;;;;;;0.10;0.10;;;;;;;-145.06;89.38;90555.88;10329811;28;20026;-78
2023/06/13 21:26:56;;;;;;;0.10;0.10;;;;;;;-145.06;90.90;90594.69;10334039;28;20073;-78
2023/06/13 21:31:56;;;;;;;0.10;0.10;;;;;;;-145.06;91.75;90611.03;10346679;28;20030;-79
2023/06/13 21:36:57;;;;;;;0.10;0.10;;;;;;;-145.06;93.59;90609.00;10322499;28;20027;-78
2023/06/13 21:41:57;;;;;;;0.10;0.10;;;;;;;-145.06;96.46;90674.41;10298915;28;20117;-78
2023/06/13 21:46:57;;;;;;;0.10;0.10;;;;;;;-145.06;99.73;90688.72;10330694;28;20038;-79
2023/06/13 21:51:58;;;;;;;0.10;0.10;;;;;;;-145.06;100.00;90676.44;10305986;28;20057;-78
2023/06/13 21:56:58;;;;;;;0.10;0.10;;;;;;;-145.06;100.00;90694.84;10347802;28;20053;-78
2023/06/13 22:01:59;;;;;;;0.10;0.10;;;;;;;-145.06;100.00;90709.16;10343798;28;20372;-78
2023/06/13 22:07:04;;;;;;;0.10;0.10;;;;;;;-145.06;100.00;90717.31;10345971;28;20382;-78
2023/06/13 22:12:06;;;;;;;0.10;0.10;;;;;;;-145.06;100.00;90760.25;10364162;28;20026;-79
2023/06/13 22:17:08;;;;;;;0.10;0.10;;;;;;;-145.06;100.00;90797.03;10331587;28;20030;-78
2023/06/13 22:22:08;;;;;;;0.10;0.10;;;;;;;-145.06;100.00;90803.16;10318414;28;20026;-78
2023/06/13 22:27:09;;;;;;;0.10;0.10;;;;;;;-145.06;100.00;90778.66;10340028;28;20026;-78
2023/06/13 22:32:09;;;;;;;0.10;0.10;;;;;;;-145.06;100.00;90803.16;10331889;28;20133;-78
2023/06/13 22:37:11;;;;;;;0.10;0.10;;;;;;;-145.06;100.00;90754.13;10336492;28;20026;-78
2023/06/13 22:42:12;;;;;;;0.10;0.10;;;;;;;-145.06;100.00;90819.53;10313447;28;20018;-78
2023/06/13 22:47:12;;;;;;;0.10;0.10;;;;;;;-145.06;100.00;90788.88;10349765;28;20022;-78
2023/06/13 22:52:14;;;;;;;0.10;0.10;;;;;;;-145.06;100.00;90891.06;10314888;28;20056;-78